KOUN/OUN METAR and TAF weather

Enter ICAO airport designator
Station Type Date Time Source
KOUN METAR 2020/01/26 00:45 UTC NOAA

KOUN 260045Z 12010KT 10SM OVC048 14/04 A2993


Station Type Date Time Source
KOUN Decoded METAR 2020/01/26 00:45 UTC NOAA

Norman / Max Westheimer, OK, United States (KOUN) 35-13N 097-27W 357M
Jan 25, 2020 - 07:45 PM EST / 2020.01.26 0045 UTC
Wind: from the ESE (120 degrees) at 12 MPH (10 KT):0
Visibility: 10 mile(s):0
Sky conditions: overcast
Temperature: 57 F (14 C)
Dew Point: 39 F (4 C)
Relative Humidity: 50%
Pressure (altimeter): 29.93 in. Hg (1013 hPa)
ob: KOUN 260045Z 12010KT 10SM OVC048 14/04 A2993
cycle: 1

Station Type Date Time Source
KOUN TAF 2020/01/25 18:39 UTC NOAA

TAF KOUN 251736Z 2518/2618 17009KT P6SM BKN250
FM260000 13005KT P6SM BKN040 PROB30 2603/2606 5SM -SHRA OVC025
FM261100 35005KT P6SM BKN025
TEMPO 2611/2615 2SM BR BKN012
FM261600 35007KT P6SM SCT150

Example: see airport list